LAN450 SCTE-SAEZ
Flight info
| Callsign | LAN450 |
|---|---|
| Flight time | 1h 48m |
| Altitude | 37000 |
| Route | CALBU4A CALBU UM658 BAR UW26 EGUNO UZ109 ISMIL UT655 ASADA ASADA7U |
| Aircraft | B763/H-SDE3FGHIM3RWXY/LB1 |
Departure
| Time | 2026-04-21 18:01 |
|---|---|
| Airport | El Tepual International Airport (SCTE) |
Arrival
| Time | 2026-04-21 19:50 |
|---|---|
| Airport | Ezeiza International Airport - Ministro Pistarini (SAEZ) |
| Time | Latitude | Longitude | Altitude | Speed | Heading |
|---|---|---|---|---|---|
| 2026-04-21 17:27 | -41.43611 | -73.09686 | 284 ft | 0 kts | 226° |
| 2026-04-21 17:52 | -41.43613 | -73.09689 | 284 ft | 1 kts | 223° |
| 2026-04-21 17:52 | -41.43621 | -73.09692 | 284 ft | 1 kts | 181° |
| 2026-04-21 17:52 | -41.43627 | -73.09689 | 284 ft | 0 kts | 157° |
| 2026-04-21 17:53 | -41.43631 | -73.09683 | 284 ft | 1 kts | 131° |
| 2026-04-21 17:53 | -41.43634 | -73.09668 | 284 ft | 2 kts | 92° |
| 2026-04-21 17:53 | -41.43638 | -73.09642 | 284 ft | 2 kts | 111° |
| 2026-04-21 17:54 | -41.43655 | -73.09623 | 285 ft | 3 kts | 159° |
| 2026-04-21 17:54 | -41.43686 | -73.09620 | 285 ft | 6 kts | 179° |
| 2026-04-21 17:54 | -41.43734 | -73.09620 | 285 ft | 6 kts | 181° |
| 2026-04-21 17:54 | -41.43779 | -73.09621 | 286 ft | 6 kts | 181° |
| 2026-04-21 17:55 | -41.43823 | -73.09622 | 287 ft | 6 kts | 181° |
| 2026-04-21 17:55 | -41.43868 | -73.09624 | 287 ft | 7 kts | 181° |
| 2026-04-21 17:55 | -41.43928 | -73.09624 | 287 ft | 10 kts | 178° |
| 2026-04-21 17:55 | -41.44007 | -73.09627 | 287 ft | 11 kts | 183° |
| 2026-04-21 17:56 | -41.44090 | -73.09633 | 287 ft | 11 kts | 182° |
| 2026-04-21 17:56 | -41.44174 | -73.09637 | 287 ft | 12 kts | 182° |
| 2026-04-21 17:56 | -41.44253 | -73.09637 | 289 ft | 10 kts | 179° |
| 2026-04-21 17:56 | -41.44323 | -73.09637 | 290 ft | 9 kts | 180° |
| 2026-04-21 17:57 | -41.44389 | -73.09638 | 291 ft | 10 kts | 181° |
| 2026-04-21 17:57 | -41.44480 | -73.09642 | 293 ft | 15 kts | 182° |
| 2026-04-21 17:57 | -41.44599 | -73.09648 | 296 ft | 17 kts | 182° |
| 2026-04-21 17:57 | -41.44716 | -73.09650 | 299 ft | 15 kts | 181° |
| 2026-04-21 17:58 | -41.44811 | -73.09654 | 303 ft | 12 kts | 182° |
| 2026-04-21 17:58 | -41.44889 | -73.09659 | 305 ft | 9 kts | 183° |
| 2026-04-21 17:58 | -41.44947 | -73.09663 | 308 ft | 7 kts | 183° |
| 2026-04-21 17:58 | -41.45000 | -73.09662 | 310 ft | 10 kts | 175° |
| 2026-04-21 17:59 | -41.45061 | -73.09620 | 311 ft | 8 kts | 120° |
| 2026-04-21 17:59 | -41.45067 | -73.09577 | 311 ft | 4 kts | 96° |
| 2026-04-21 17:59 | -41.45070 | -73.09525 | 310 ft | 6 kts | 94° |
| 2026-04-21 17:59 | -41.45070 | -73.09458 | 310 ft | 4 kts | 82° |
| 2026-04-21 18:00 | -41.45048 | -73.09438 | 309 ft | 4 kts | 12° |
| 2026-04-21 18:00 | -41.45032 | -73.09436 | 308 ft | 1 kts | 1° |
| 2026-04-21 18:00 | -41.45027 | -73.09436 | 308 ft | 0 kts | 1° |
| 2026-04-21 18:01 | -41.44942 | -73.09432 | 306 ft | 40 kts | 2° |
| 2026-04-21 18:01 | -41.44420 | -73.09416 | 294 ft | 108 kts | 1° |
| 2026-04-21 18:01 | -41.43460 | -73.09396 | 353 ft | 160 kts | 4° |
| 2026-04-21 18:01 | -41.42375 | -73.09322 | 1149 ft | 159 kts | 2° |
| 2026-04-21 18:02 | -41.41106 | -73.09267 | 1295 ft | 212 kts | 359° |
| 2026-04-21 18:02 | -41.39529 | -73.09248 | 1857 ft | 234 kts | 360° |
| 2026-04-21 18:02 | -41.37921 | -73.09594 | 2676 ft | 244 kts | 334° |
| 2026-04-21 18:02 | -41.36652 | -73.11054 | 3620 ft | 251 kts | 302° |
| 2026-04-21 18:03 | -41.36132 | -73.13239 | 4621 ft | 258 kts | 272° |
| 2026-04-21 18:03 | -41.36547 | -73.15554 | 5682 ft | 265 kts | 243° |
| 2026-04-21 18:03 | -41.37789 | -73.17341 | 6645 ft | 276 kts | 215° |
| 2026-04-21 18:03 | -41.39616 | -73.18188 | 7568 ft | 289 kts | 187° |
| 2026-04-21 18:04 | -41.41613 | -73.17836 | 8447 ft | 301 kts | 160° |
| 2026-04-21 18:04 | -41.43371 | -73.16296 | 9302 ft | 310 kts | 132° |
| 2026-04-21 18:04 | -41.44495 | -73.13855 | 10127 ft | 316 kts | 106° |
| 2026-04-21 18:04 | -41.44824 | -73.10944 | 10737 ft | 327 kts | 85° |
| 2026-04-21 18:05 | -41.44430 | -73.07875 | 10933 ft | 352 kts | 67° |
| 2026-04-21 18:05 | -41.43296 | -73.04939 | 11552 ft | 363 kts | 53° |
| 2026-04-21 18:05 | -41.42104 | -73.01963 | 12537 ft | 372 kts | 66° |
| 2026-04-21 18:05 | -41.41330 | -72.98669 | 13460 ft | 381 kts | 71° |
| 2026-04-21 18:06 | -41.40699 | -72.95251 | 14385 ft | 387 kts | 74° |
| 2026-04-21 18:06 | -41.40137 | -72.91726 | 15340 ft | 391 kts | 75° |
| 2026-04-21 18:06 | -41.39622 | -72.88198 | 16224 ft | 395 kts | 76° |
| 2026-04-21 18:06 | -41.39120 | -72.84611 | 17074 ft | 400 kts | 76° |
| 2026-04-21 18:07 | -41.38620 | -72.80934 | 17911 ft | 404 kts | 77° |
| 2026-04-21 18:07 | -41.38131 | -72.77306 | 18741 ft | 407 kts | 76° |
| 2026-04-21 18:07 | -41.37629 | -72.73570 | 19424 ft | 414 kts | 76° |
| 2026-04-21 18:07 | -41.37122 | -72.69795 | 20163 ft | 418 kts | 76° |
| 2026-04-21 18:08 | -41.36610 | -72.65994 | 20864 ft | 423 kts | 76° |
| 2026-04-21 18:08 | -41.36140 | -72.62134 | 21552 ft | 428 kts | 76° |
| 2026-04-21 18:08 | -41.35605 | -72.58218 | 22220 ft | 431 kts | 74° |
| 2026-04-21 18:08 | -41.35030 | -72.54306 | 22802 ft | 438 kts | 73° |
| 2026-04-21 18:09 | -41.34447 | -72.50346 | 23503 ft | 440 kts | 74° |
| 2026-04-21 18:09 | -41.33841 | -72.46352 | 24063 ft | 446 kts | 73° |
| 2026-04-21 18:09 | -41.33220 | -72.42301 | 24707 ft | 450 kts | 73° |
| 2026-04-21 18:09 | -41.32592 | -72.38251 | 25333 ft | 454 kts | 73° |
| 2026-04-21 18:10 | -41.31947 | -72.34101 | 25925 ft | 459 kts | 72° |
| 2026-04-21 18:10 | -41.31296 | -72.29939 | 26574 ft | 461 kts | 72° |
| 2026-04-21 18:10 | -41.30644 | -72.25776 | 27118 ft | 466 kts | 72° |
| 2026-04-21 18:10 | -41.29985 | -72.21591 | 27631 ft | 470 kts | 72° |
| 2026-04-21 18:11 | -41.29309 | -72.17300 | 28142 ft | 475 kts | 72° |
| 2026-04-21 18:11 | -41.28634 | -72.13026 | 28718 ft | 477 kts | 72° |
| 2026-04-21 18:11 | -41.27952 | -72.08727 | 29217 ft | 482 kts | 72° |
| 2026-04-21 18:11 | -41.27261 | -72.04378 | 29739 ft | 485 kts | 72° |
| 2026-04-21 18:12 | -41.26560 | -71.99979 | 30188 ft | 489 kts | 72° |
| 2026-04-21 18:12 | -41.25851 | -71.95538 | 30692 ft | 493 kts | 72° |
| 2026-04-21 18:12 | -41.25137 | -71.91080 | 31080 ft | 498 kts | 72° |
| 2026-04-21 18:12 | -41.24414 | -71.86581 | 31603 ft | 499 kts | 72° |
| 2026-04-21 18:13 | -41.23709 | -71.82031 | 32053 ft | 503 kts | 73° |
| 2026-04-21 18:13 | -41.23024 | -71.77471 | 32540 ft | 504 kts | 73° |
| 2026-04-21 18:13 | -41.22348 | -71.72984 | 33187 ft | 502 kts | 73° |
| 2026-04-21 18:13 | -41.21655 | -71.68414 | 33714 ft | 502 kts | 73° |
| 2026-04-21 18:14 | -41.20280 | -71.59375 | 34771 ft | 499 kts | 73° |
| 2026-04-21 18:14 | -41.19587 | -71.54838 | 35180 ft | 500 kts | 73° |
| 2026-04-21 18:14 | -41.18892 | -71.50314 | 35663 ft | 499 kts | 73° |
| 2026-04-21 18:15 | -41.18232 | -71.46016 | 36095 ft | 498 kts | 73° |
| 2026-04-21 18:15 | -41.17532 | -71.41482 | 36490 ft | 498 kts | 73° |
| 2026-04-21 18:15 | -41.16841 | -71.37006 | 36964 ft | 498 kts | 73° |
| 2026-04-21 18:15 | -41.16145 | -71.32519 | 37098 ft | 497 kts | 72° |
| 2026-04-21 18:16 | -41.15453 | -71.28066 | 37101 ft | 495 kts | 72° |
| 2026-04-21 18:16 | -41.13226 | -71.19529 | 37127 ft | 479 kts | 54° |
| 2026-04-21 18:17 | -41.09378 | -71.12520 | 37104 ft | 469 kts | 43° |
| 2026-04-21 18:17 | -41.05092 | -71.06033 | 37109 ft | 466 kts | 41° |
| 2026-04-21 18:18 | -41.00740 | -70.99643 | 37091 ft | 467 kts | 41° |
| 2026-04-21 18:18 | -40.96375 | -70.93303 | 37025 ft | 468 kts | 41° |
| 2026-04-21 18:19 | -40.92013 | -70.86997 | 37004 ft | 470 kts | 41° |
| 2026-04-21 18:19 | -40.87614 | -70.80653 | 37005 ft | 467 kts | 41° |
| 2026-04-21 18:20 | -40.83240 | -70.74363 | 37014 ft | 468 kts | 41° |
| 2026-04-21 18:20 | -40.78904 | -70.68143 | 37030 ft | 468 kts | 41° |
| 2026-04-21 18:21 | -40.74495 | -70.61828 | 37050 ft | 469 kts | 41° |
| 2026-04-21 18:21 | -40.70051 | -70.55471 | 37027 ft | 469 kts | 41° |
| 2026-04-21 18:22 | -40.65630 | -70.49161 | 37043 ft | 470 kts | 42° |
| 2026-04-21 18:22 | -40.61219 | -70.42871 | 37039 ft | 471 kts | 43° |
| 2026-04-21 18:23 | -40.57184 | -70.36056 | 37050 ft | 475 kts | 47° |
| 2026-04-21 18:23 | -40.53216 | -70.29131 | 37019 ft | 473 kts | 47° |
| 2026-04-21 18:24 | -40.49284 | -70.22263 | 37023 ft | 474 kts | 47° |
| 2026-04-21 18:24 | -40.45293 | -70.15303 | 37021 ft | 475 kts | 47° |
| 2026-04-21 18:25 | -40.41270 | -70.08302 | 37015 ft | 476 kts | 47° |
| 2026-04-21 18:25 | -40.37221 | -70.01266 | 37010 ft | 476 kts | 47° |
| 2026-04-21 18:26 | -40.33172 | -69.94249 | 37025 ft | 476 kts | 48° |
| 2026-04-21 18:26 | -40.29158 | -69.87309 | 37020 ft | 475 kts | 48° |
| 2026-04-21 18:27 | -40.25137 | -69.80373 | 37025 ft | 476 kts | 48° |
| 2026-04-21 18:27 | -40.21138 | -69.73486 | 37030 ft | 476 kts | 48° |
| 2026-04-21 18:28 | -40.17154 | -69.66644 | 37029 ft | 477 kts | 48° |
| 2026-04-21 18:28 | -40.13144 | -69.59769 | 37035 ft | 477 kts | 48° |
| 2026-04-21 18:29 | -40.09119 | -69.52885 | 37028 ft | 477 kts | 48° |
| 2026-04-21 18:29 | -40.05097 | -69.46024 | 37025 ft | 481 kts | 48° |
| 2026-04-21 18:30 | -40.01004 | -69.39056 | 37016 ft | 485 kts | 48° |
| 2026-04-21 18:30 | -39.96967 | -69.32195 | 37014 ft | 483 kts | 47° |
| 2026-04-21 18:31 | -39.92865 | -69.25240 | 37019 ft | 483 kts | 47° |
| 2026-04-21 18:31 | -39.88800 | -69.18366 | 37024 ft | 483 kts | 48° |
| 2026-04-21 18:32 | -39.84685 | -69.11420 | 37058 ft | 485 kts | 48° |
| 2026-04-21 18:32 | -39.80598 | -69.04535 | 37040 ft | 482 kts | 48° |
| 2026-04-21 18:33 | -39.76498 | -68.97646 | 37026 ft | 482 kts | 48° |
| 2026-04-21 18:33 | -39.72387 | -68.90752 | 37032 ft | 484 kts | 48° |
| 2026-04-21 18:34 | -39.68272 | -68.83869 | 37041 ft | 486 kts | 48° |
| 2026-04-21 18:34 | -39.64134 | -68.76958 | 37046 ft | 485 kts | 48° |
| 2026-04-21 18:35 | -39.60703 | -68.71241 | 37036 ft | 483 kts | 48° |
| 2026-04-21 18:35 | -39.55884 | -68.63232 | 37032 ft | 486 kts | 48° |
| 2026-04-21 18:36 | -39.51716 | -68.56319 | 37036 ft | 487 kts | 48° |
| 2026-04-21 18:36 | -39.47562 | -68.49443 | 37035 ft | 486 kts | 48° |
| 2026-04-21 18:37 | -39.43412 | -68.42590 | 37061 ft | 488 kts | 48° |
| 2026-04-21 18:37 | -39.39229 | -68.35695 | 37040 ft | 487 kts | 48° |
| 2026-04-21 18:38 | -39.35046 | -68.28817 | 37028 ft | 486 kts | 47° |
| 2026-04-21 18:38 | -39.30870 | -68.21967 | 37041 ft | 488 kts | 48° |
| 2026-04-21 18:39 | -39.26683 | -68.15112 | 37056 ft | 488 kts | 48° |
| 2026-04-21 18:39 | -39.22490 | -68.08260 | 37123 ft | 488 kts | 48° |
| 2026-04-21 18:40 | -39.18286 | -68.01408 | 37056 ft | 490 kts | 48° |
| 2026-04-21 18:40 | -39.14798 | -67.95731 | 37085 ft | 488 kts | 48° |
| 2026-04-21 18:41 | -39.09856 | -67.87709 | 37082 ft | 492 kts | 48° |
| 2026-04-21 18:41 | -39.05643 | -67.80882 | 37058 ft | 489 kts | 48° |
| 2026-04-21 18:42 | -39.01398 | -67.74022 | 37046 ft | 487 kts | 48° |
| 2026-04-21 18:42 | -38.97168 | -67.67200 | 37046 ft | 489 kts | 48° |
| 2026-04-21 18:43 | -38.92961 | -67.60430 | 37034 ft | 489 kts | 48° |
| 2026-04-21 18:43 | -38.88708 | -67.53600 | 37028 ft | 491 kts | 48° |
| 2026-04-21 18:44 | -38.84405 | -67.46703 | 37050 ft | 490 kts | 48° |
| 2026-04-21 18:44 | -38.80133 | -67.39871 | 37050 ft | 492 kts | 48° |
| 2026-04-21 18:45 | -38.75856 | -67.33045 | 37042 ft | 492 kts | 47° |
| 2026-04-21 18:45 | -38.71555 | -67.26197 | 37041 ft | 491 kts | 47° |
| 2026-04-21 18:46 | -38.67273 | -67.19394 | 37052 ft | 492 kts | 47° |
| 2026-04-21 18:46 | -38.62953 | -67.12545 | 37024 ft | 492 kts | 47° |
| 2026-04-21 18:47 | -38.58676 | -67.05778 | 37036 ft | 492 kts | 47° |
| 2026-04-21 18:47 | -38.54392 | -66.99015 | 37033 ft | 492 kts | 48° |
| 2026-04-21 18:48 | -38.50044 | -66.92163 | 37036 ft | 494 kts | 47° |
| 2026-04-21 18:48 | -38.45686 | -66.85310 | 37043 ft | 495 kts | 47° |
| 2026-04-21 18:49 | -38.41356 | -66.78517 | 37032 ft | 492 kts | 47° |
| 2026-04-21 18:49 | -38.37758 | -66.72881 | 37039 ft | 493 kts | 47° |
| 2026-04-21 18:50 | -38.32984 | -66.64696 | 37066 ft | 499 kts | 58° |
| 2026-04-21 18:50 | -38.29700 | -66.56938 | 37045 ft | 500 kts | 59° |
| 2026-04-21 18:51 | -38.26422 | -66.49184 | 37031 ft | 498 kts | 59° |
| 2026-04-21 18:51 | -38.23132 | -66.41406 | 37061 ft | 500 kts | 59° |
| 2026-04-21 18:52 | -38.19837 | -66.33630 | 37053 ft | 501 kts | 59° |
| 2026-04-21 18:52 | -38.16551 | -66.25891 | 37044 ft | 503 kts | 59° |
| 2026-04-21 18:53 | -38.13216 | -66.18059 | 37052 ft | 503 kts | 59° |
| 2026-04-21 18:53 | -38.09886 | -66.10258 | 37038 ft | 502 kts | 59° |
| 2026-04-21 18:54 | -38.06571 | -66.02511 | 37050 ft | 504 kts | 59° |
| 2026-04-21 18:54 | -38.03234 | -65.94730 | 37093 ft | 505 kts | 59° |
| 2026-04-21 18:55 | -38.00443 | -65.88238 | 37076 ft | 504 kts | 59° |
| 2026-04-21 18:55 | -37.96528 | -65.79152 | 37110 ft | 506 kts | 59° |
| 2026-04-21 18:56 | -37.93162 | -65.71362 | 37060 ft | 504 kts | 59° |
| 2026-04-21 18:56 | -37.89798 | -65.63596 | 37102 ft | 508 kts | 59° |
| 2026-04-21 18:57 | -37.86377 | -65.55716 | 37093 ft | 506 kts | 59° |
| 2026-04-21 18:57 | -37.82994 | -65.47945 | 37083 ft | 506 kts | 59° |
| 2026-04-21 18:58 | -37.79597 | -65.40158 | 37094 ft | 507 kts | 59° |
| 2026-04-21 18:58 | -37.76183 | -65.32353 | 37109 ft | 510 kts | 58° |
| 2026-04-21 18:59 | -37.72717 | -65.24445 | 37088 ft | 508 kts | 58° |
| 2026-04-21 18:59 | -37.69300 | -65.16672 | 37096 ft | 511 kts | 58° |
| 2026-04-21 19:00 | -37.65839 | -65.08820 | 37097 ft | 512 kts | 58° |
| 2026-04-21 19:00 | -37.62378 | -65.00983 | 37086 ft | 512 kts | 58° |
| 2026-04-21 19:01 | -37.58937 | -64.93209 | 37114 ft | 513 kts | 58° |
| 2026-04-21 19:01 | -37.55468 | -64.85393 | 37093 ft | 512 kts | 58° |
| 2026-04-21 19:02 | -37.51981 | -64.77551 | 37095 ft | 513 kts | 58° |
| 2026-04-21 19:02 | -37.48489 | -64.69722 | 37130 ft | 515 kts | 58° |
| 2026-04-21 19:02 | -37.46738 | -64.65804 | 37006 ft | 515 kts | 58° |
| 2026-04-21 19:03 | -37.45003 | -64.61925 | 37153 ft | 514 kts | 57° |
| 2026-04-21 19:03 | -37.41495 | -64.54099 | 37048 ft | 515 kts | 58° |
| 2026-04-21 19:04 | -37.37976 | -64.46260 | 37138 ft | 519 kts | 58° |
| 2026-04-21 19:04 | -37.34432 | -64.38389 | 37101 ft | 514 kts | 58° |
| 2026-04-21 19:05 | -37.30927 | -64.30695 | 37084 ft | 516 kts | 56° |
| 2026-04-21 19:05 | -37.27351 | -64.22880 | 37126 ft | 516 kts | 56° |
| 2026-04-21 19:06 | -37.23730 | -64.14983 | 37088 ft | 516 kts | 56° |
| 2026-04-21 19:06 | -37.20150 | -64.07197 | 37115 ft | 517 kts | 57° |
| 2026-04-21 19:07 | -37.16570 | -63.99422 | 37133 ft | 515 kts | 56° |
| 2026-04-21 19:07 | -37.12959 | -63.91608 | 37083 ft | 515 kts | 56° |
| 2026-04-21 19:08 | -37.09300 | -63.83699 | 37111 ft | 517 kts | 56° |
| 2026-04-21 19:08 | -37.05656 | -63.75846 | 37099 ft | 515 kts | 56° |
| 2026-04-21 19:09 | -37.02015 | -63.68020 | 37108 ft | 514 kts | 56° |
| 2026-04-21 19:09 | -36.98356 | -63.60173 | 37096 ft | 515 kts | 55° |
| 2026-04-21 19:10 | -36.94692 | -63.52335 | 37104 ft | 518 kts | 56° |
| 2026-04-21 19:10 | -36.91009 | -63.44471 | 37091 ft | 515 kts | 55° |
| 2026-04-21 19:11 | -36.87341 | -63.36661 | 37098 ft | 517 kts | 56° |
| 2026-04-21 19:11 | -36.83660 | -63.28838 | 37094 ft | 516 kts | 54° |
| 2026-04-21 19:12 | -36.79961 | -63.21003 | 37059 ft | 516 kts | 54° |
| 2026-04-21 19:12 | -36.76261 | -63.13176 | 37113 ft | 518 kts | 54° |
| 2026-04-21 19:13 | -36.72542 | -63.05330 | 37084 ft | 518 kts | 54° |
| 2026-04-21 19:13 | -36.68837 | -62.97532 | 37090 ft | 516 kts | 54° |
| 2026-04-21 19:14 | -36.65138 | -62.89764 | 37080 ft | 518 kts | 54° |
| 2026-04-21 19:14 | -36.61441 | -62.82020 | 37015 ft | 517 kts | 54° |
| 2026-04-21 19:14 | -36.59613 | -62.78196 | 37117 ft | 515 kts | 54° |
| 2026-04-21 19:15 | -36.57774 | -62.74357 | 37085 ft | 517 kts | 54° |
| 2026-04-21 19:15 | -36.54097 | -62.66687 | 37086 ft | 518 kts | 53° |
| 2026-04-21 19:16 | -36.50343 | -62.58879 | 37041 ft | 519 kts | 54° |
| 2026-04-21 19:16 | -36.46578 | -62.51064 | 37030 ft | 518 kts | 54° |
| 2026-04-21 19:17 | -36.40987 | -62.39492 | 36977 ft | 520 kts | 54° |
| 2026-04-21 19:17 | -36.39146 | -62.35686 | 37180 ft | 518 kts | 53° |
| 2026-04-21 19:17 | -36.37279 | -62.31839 | 36966 ft | 519 kts | 53° |
| 2026-04-21 19:18 | -36.35437 | -62.28040 | 37071 ft | 516 kts | 53° |
| 2026-04-21 19:18 | -36.33567 | -62.24192 | 37043 ft | 519 kts | 52° |
| 2026-04-21 19:18 | -36.29836 | -62.16530 | 37030 ft | 523 kts | 53° |
| 2026-04-21 19:19 | -36.26107 | -62.08884 | 37091 ft | 520 kts | 53° |
| 2026-04-21 19:19 | -36.22381 | -62.01263 | 37069 ft | 519 kts | 52° |
| 2026-04-21 19:20 | -36.18618 | -61.93589 | 37046 ft | 523 kts | 52° |
| 2026-04-21 19:20 | -36.14781 | -61.85775 | 37077 ft | 523 kts | 53° |
| 2026-04-21 19:21 | -36.10988 | -61.78065 | 37119 ft | 520 kts | 52° |
| 2026-04-21 19:21 | -36.07164 | -61.70295 | 37059 ft | 525 kts | 52° |
| 2026-04-21 19:22 | -36.03315 | -61.62486 | 37059 ft | 522 kts | 52° |
| 2026-04-21 19:22 | -35.99504 | -61.54780 | 36939 ft | 525 kts | 52° |
| 2026-04-21 19:23 | -35.97571 | -61.50876 | 37112 ft | 523 kts | 52° |
| 2026-04-21 19:23 | -35.95672 | -61.47047 | 36943 ft | 525 kts | 53° |
| 2026-04-21 19:23 | -35.93756 | -61.43181 | 37127 ft | 525 kts | 53° |
| 2026-04-21 19:23 | -35.91801 | -61.39245 | 37043 ft | 526 kts | 52° |
| 2026-04-21 19:24 | -35.87947 | -61.31498 | 37041 ft | 527 kts | 52° |
| 2026-04-21 19:24 | -35.84107 | -61.23718 | 37040 ft | 526 kts | 52° |
| 2026-04-21 19:25 | -35.80273 | -61.15969 | 37036 ft | 523 kts | 52° |
| 2026-04-21 19:25 | -35.78373 | -61.12137 | 36883 ft | 528 kts | 52° |
| 2026-04-21 19:25 | -35.76402 | -61.08178 | 36281 ft | 538 kts | 52° |
| 2026-04-21 19:26 | -35.74424 | -61.04194 | 35652 ft | 537 kts | 53° |
| 2026-04-21 19:26 | -35.72477 | -61.00275 | 35051 ft | 534 kts | 53° |
| 2026-04-21 19:26 | -35.70534 | -60.96370 | 34390 ft | 532 kts | 53° |
| 2026-04-21 19:26 | -35.68599 | -60.92489 | 33780 ft | 529 kts | 53° |
| 2026-04-21 19:27 | -35.66679 | -60.88641 | 33141 ft | 526 kts | 53° |
| 2026-04-21 19:27 | -35.64761 | -60.84803 | 32511 ft | 524 kts | 53° |
| 2026-04-21 19:27 | -35.62840 | -60.80961 | 31879 ft | 521 kts | 53° |
| 2026-04-21 19:27 | -35.60910 | -60.77111 | 31252 ft | 520 kts | 54° |
| 2026-04-21 19:28 | -35.59023 | -60.73346 | 30634 ft | 520 kts | 54° |
| 2026-04-21 19:28 | -35.57133 | -60.69584 | 30005 ft | 520 kts | 54° |
| 2026-04-21 19:28 | -35.55215 | -60.65763 | 29499 ft | 515 kts | 55° |
| 2026-04-21 19:28 | -35.53345 | -60.62036 | 29532 ft | 496 kts | 54° |
| 2026-04-21 19:29 | -35.51548 | -60.58462 | 29426 ft | 482 kts | 54° |
| 2026-04-21 19:29 | -35.49774 | -60.54944 | 28931 ft | 477 kts | 54° |
| 2026-04-21 19:29 | -35.48022 | -60.51472 | 28349 ft | 475 kts | 54° |
| 2026-04-21 19:29 | -35.46305 | -60.48070 | 27827 ft | 471 kts | 53° |
| 2026-04-21 19:30 | -35.44585 | -60.44670 | 27276 ft | 468 kts | 53° |
| 2026-04-21 19:30 | -35.42876 | -60.41292 | 26859 ft | 462 kts | 53° |
| 2026-04-21 19:30 | -35.41164 | -60.37911 | 26207 ft | 462 kts | 53° |
| 2026-04-21 19:30 | -35.39469 | -60.34568 | 25748 ft | 457 kts | 52° |
| 2026-04-21 19:31 | -35.37775 | -60.31229 | 25228 ft | 453 kts | 52° |
| 2026-04-21 19:31 | -35.36166 | -60.28064 | 24601 ft | 452 kts | 52° |
| 2026-04-21 19:31 | -35.34485 | -60.24757 | 24217 ft | 445 kts | 52° |
| 2026-04-21 19:31 | -35.32897 | -60.21639 | 23549 ft | 447 kts | 52° |
| 2026-04-21 19:32 | -35.31262 | -60.18422 | 23186 ft | 439 kts | 51° |
| 2026-04-21 19:32 | -35.29644 | -60.15249 | 22787 ft | 434 kts | 51° |
| 2026-04-21 19:32 | -35.28024 | -60.12077 | 22307 ft | 429 kts | 51° |
| 2026-04-21 19:32 | -35.26449 | -60.08994 | 21832 ft | 426 kts | 51° |
| 2026-04-21 19:33 | -35.25413 | -60.06967 | 21543 ft | 423 kts | 52° |
| 2026-04-21 19:33 | -35.23333 | -60.02900 | 20942 ft | 417 kts | 51° |
| 2026-04-21 19:33 | -35.21808 | -59.99924 | 20472 ft | 413 kts | 52° |
| 2026-04-21 19:33 | -35.20275 | -59.96934 | 20017 ft | 410 kts | 51° |
| 2026-04-21 19:34 | -35.18766 | -59.93988 | 19619 ft | 404 kts | 52° |
| 2026-04-21 19:34 | -35.17252 | -59.91045 | 19077 ft | 402 kts | 52° |
| 2026-04-21 19:34 | -35.15765 | -59.88149 | 18653 ft | 397 kts | 52° |
| 2026-04-21 19:34 | -35.14272 | -59.85243 | 18191 ft | 393 kts | 52° |
| 2026-04-21 19:35 | -35.12800 | -59.82385 | 17706 ft | 390 kts | 52° |
| 2026-04-21 19:35 | -35.09917 | -59.76790 | 16805 ft | 382 kts | 51° |
| 2026-04-21 19:35 | -35.08507 | -59.74055 | 16291 ft | 380 kts | 51° |
| 2026-04-21 19:36 | -35.07103 | -59.71338 | 15836 ft | 377 kts | 51° |
| 2026-04-21 19:36 | -35.05721 | -59.68662 | 15345 ft | 375 kts | 51° |
| 2026-04-21 19:36 | -35.04333 | -59.65980 | 14825 ft | 373 kts | 51° |
| 2026-04-21 19:36 | -35.02996 | -59.63266 | 14339 ft | 374 kts | 58° |
| 2026-04-21 19:37 | -35.02146 | -59.60206 | 13889 ft | 379 kts | 72° |
| 2026-04-21 19:37 | -35.01593 | -59.57051 | 13437 ft | 375 kts | 72° |
| 2026-04-21 19:37 | -35.01017 | -59.53900 | 12956 ft | 374 kts | 73° |
| 2026-04-21 19:37 | -35.00458 | -59.50810 | 12466 ft | 371 kts | 73° |
| 2026-04-21 19:38 | -34.99898 | -59.47699 | 12035 ft | 367 kts | 73° |
| 2026-04-21 19:38 | -34.99341 | -59.44646 | 11541 ft | 366 kts | 73° |
| 2026-04-21 19:38 | -34.98790 | -59.41596 | 11142 ft | 361 kts | 73° |
| 2026-04-21 19:38 | -34.98254 | -59.38650 | 10652 ft | 361 kts | 73° |
| 2026-04-21 19:39 | -34.97708 | -59.35653 | 10190 ft | 359 kts | 73° |
| 2026-04-21 19:39 | -34.97174 | -59.32721 | 9785 ft | 355 kts | 73° |
| 2026-04-21 19:39 | -34.96638 | -59.29781 | 9404 ft | 351 kts | 73° |
| 2026-04-21 19:39 | -34.96112 | -59.26907 | 8973 ft | 348 kts | 73° |
| 2026-04-21 19:40 | -34.95594 | -59.24072 | 8597 ft | 344 kts | 74° |
| 2026-04-21 19:40 | -34.95070 | -59.21215 | 8176 ft | 340 kts | 74° |
| 2026-04-21 19:40 | -34.94558 | -59.18422 | 7768 ft | 337 kts | 74° |
| 2026-04-21 19:40 | -34.94054 | -59.15683 | 7391 ft | 333 kts | 74° |
| 2026-04-21 19:41 | -34.93545 | -59.12920 | 6989 ft | 330 kts | 74° |
| 2026-04-21 19:41 | -34.93044 | -59.10197 | 6560 ft | 327 kts | 74° |
| 2026-04-21 19:41 | -34.92552 | -59.07531 | 6176 ft | 324 kts | 74° |
| 2026-04-21 19:41 | -34.92058 | -59.04860 | 5709 ft | 323 kts | 75° |
| 2026-04-21 19:42 | -34.91562 | -59.02186 | 5384 ft | 317 kts | 73° |
| 2026-04-21 19:42 | -34.90789 | -58.99700 | 5218 ft | 315 kts | 56° |
| 2026-04-21 19:42 | -34.89418 | -58.97665 | 4994 ft | 310 kts | 38° |
| 2026-04-21 19:42 | -34.87622 | -58.96269 | 4622 ft | 301 kts | 23° |
| 2026-04-21 19:43 | -34.85739 | -58.95169 | 4468 ft | 303 kts | 24° |
| 2026-04-21 19:43 | -34.83833 | -58.94073 | 4305 ft | 302 kts | 22° |
| 2026-04-21 19:43 | -34.81937 | -58.93008 | 4143 ft | 301 kts | 22° |
| 2026-04-21 19:43 | -34.80042 | -58.91925 | 3976 ft | 302 kts | 27° |
| 2026-04-21 19:44 | -34.78396 | -58.90332 | 3829 ft | 305 kts | 47° |
| 2026-04-21 19:44 | -34.77270 | -58.88119 | 3684 ft | 308 kts | 67° |
| 2026-04-21 19:44 | -34.76772 | -58.85593 | 3584 ft | 303 kts | 81° |
| 2026-04-21 19:44 | -34.76887 | -58.83144 | 3474 ft | 283 kts | 102° |
| 2026-04-21 19:45 | -34.77305 | -58.80892 | 3447 ft | 261 kts | 100° |
| 2026-04-21 19:45 | -34.77674 | -58.78780 | 3342 ft | 246 kts | 101° |
| 2026-04-21 19:45 | -34.78025 | -58.76821 | 3211 ft | 234 kts | 101° |
| 2026-04-21 19:45 | -34.78364 | -58.74939 | 3154 ft | 218 kts | 100° |
| 2026-04-21 19:46 | -34.78684 | -58.73169 | 2979 ft | 210 kts | 100° |
| 2026-04-21 19:46 | -34.78989 | -58.71481 | 2733 ft | 200 kts | 100° |
| 2026-04-21 19:46 | -34.79282 | -58.69862 | 2483 ft | 192 kts | 101° |
| 2026-04-21 19:46 | -34.79554 | -58.68361 | 2238 ft | 175 kts | 100° |
| 2026-04-21 19:47 | -34.79807 | -58.66965 | 1957 ft | 162 kts | 101° |
| 2026-04-21 19:47 | -34.80046 | -58.65639 | 1719 ft | 154 kts | 102° |
| 2026-04-21 19:47 | -34.80275 | -58.64371 | 1529 ft | 154 kts | 101° |
| 2026-04-21 19:47 | -34.80507 | -58.63090 | 1344 ft | 156 kts | 101° |
| 2026-04-21 19:48 | -34.80742 | -58.61786 | 1137 ft | 154 kts | 102° |
| 2026-04-21 19:48 | -34.80972 | -58.60512 | 924 ft | 151 kts | 102° |
| 2026-04-21 19:48 | -34.81197 | -58.59265 | 701 ft | 151 kts | 103° |
| 2026-04-21 19:48 | -34.81422 | -58.58020 | 488 ft | 146 kts | 103° |
| 2026-04-21 19:49 | -34.81640 | -58.56817 | 313 ft | 145 kts | 103° |
| 2026-04-21 19:49 | -34.81856 | -58.55625 | 156 ft | 150 kts | 104° |
| 2026-04-21 19:49 | -34.82087 | -58.54349 | 75 ft | 147 kts | 101° |
| 2026-04-21 19:49 | -34.82251 | -58.53406 | 74 ft | 77 kts | 103° |
| 2026-04-21 19:50 | -34.82352 | -58.52842 | 74 ft | 63 kts | 102° |
| 2026-04-21 19:50 | -34.82422 | -58.52458 | 74 ft | 41 kts | 102° |
| 2026-04-21 19:50 | -34.82471 | -58.52196 | 74 ft | 28 kts | 104° |
| 2026-04-21 19:50 | -34.82508 | -58.51988 | 74 ft | 23 kts | 101° |
| 2026-04-21 19:51 | -34.82513 | -58.51893 | 74 ft | 7 kts | 78° |
| 2026-04-21 19:51 | -34.82492 | -58.51839 | 74 ft | 6 kts | 52° |
| 2026-04-21 19:51 | -34.82457 | -58.51818 | 74 ft | 6 kts | 16° |
| 2026-04-21 19:51 | -34.82403 | -58.51801 | 74 ft | 8 kts | 14° |
| 2026-04-21 19:52 | -34.82342 | -58.51783 | 74 ft | 9 kts | 13° |
| 2026-04-21 19:52 | -34.82288 | -58.51789 | 74 ft | 6 kts | 326° |
| 2026-04-21 19:52 | -34.82261 | -58.51841 | 74 ft | 8 kts | 287° |
| 2026-04-21 19:52 | -34.82243 | -58.51918 | 74 ft | 10 kts | 284° |
| 2026-04-21 19:53 | -34.82225 | -58.52009 | 74 ft | 11 kts | 284° |
| 2026-04-21 19:53 | -34.82206 | -58.52108 | 74 ft | 12 kts | 283° |
| 2026-04-21 19:53 | -34.82185 | -58.52210 | 74 ft | 12 kts | 284° |
| 2026-04-21 19:53 | -34.82164 | -58.52315 | 74 ft | 13 kts | 284° |
| 2026-04-21 19:54 | -34.82142 | -58.52429 | 74 ft | 15 kts | 283° |
| 2026-04-21 19:54 | -34.82114 | -58.52570 | 74 ft | 21 kts | 284° |
| 2026-04-21 19:54 | -34.82084 | -58.52720 | 74 ft | 12 kts | 284° |
| 2026-04-21 19:54 | -34.82080 | -58.52743 | 74 ft | 0 kts | 283° |
| 2026-04-21 19:56 | -34.82077 | -58.52754 | 74 ft | 4 kts | 283° |
| 2026-04-21 19:57 | -34.82066 | -58.52810 | 74 ft | 8 kts | 284° |
| 2026-04-21 19:57 | -34.82049 | -58.52893 | 74 ft | 10 kts | 284° |
| 2026-04-21 19:57 | -34.82032 | -58.52985 | 74 ft | 11 kts | 283° |
| 2026-04-21 19:57 | -34.82013 | -58.53081 | 74 ft | 11 kts | 284° |
| 2026-04-21 19:58 | -34.81991 | -58.53183 | 74 ft | 12 kts | 285° |
| 2026-04-21 19:58 | -34.81974 | -58.53266 | 74 ft | 10 kts | 283° |
| 2026-04-21 19:58 | -34.81957 | -58.53353 | 74 ft | 10 kts | 284° |
| 2026-04-21 19:58 | -34.81938 | -58.53447 | 74 ft | 11 kts | 284° |
| 2026-04-21 19:59 | -34.81918 | -58.53542 | 74 ft | 11 kts | 283° |
| 2026-04-21 19:59 | -34.81888 | -58.53636 | 74 ft | 10 kts | 315° |
| 2026-04-21 19:59 | -34.81826 | -58.53674 | 74 ft | 10 kts | 336° |
| 2026-04-21 19:59 | -34.81759 | -58.53712 | 74 ft | 11 kts | 335° |
| 2026-04-21 20:00 | -34.81685 | -58.53759 | 74 ft | 12 kts | 330° |
| 2026-04-21 20:00 | -34.81624 | -58.53763 | 74 ft | 7 kts | 34° |
| 2026-04-21 20:00 | -34.81582 | -58.53724 | 74 ft | 4 kts | 15° |
| 2026-04-21 20:00 | -34.81554 | -58.53735 | 74 ft | 4 kts | 330° |
| 2026-04-21 20:01 | -34.81526 | -58.53759 | 74 ft | 4 kts | 326° |
| 2026-04-21 20:01 | -34.81502 | -58.53778 | 74 ft | 0 kts | 328° |
| 2026-04-21 20:01 | -34.81499 | -58.53781 | 74 ft | 0 kts | 327° |